ELLX/LUX METAR and TAF weather

Enter ICAO airport designator
Station Type Date Time Source
ELLX METAR 2019/12/06 03:50 UTC NOAA

ELLX 060350Z 22008KT 1200 R24/P2000N BR OVC001 M01/M02 Q1018 NOSIG


Station Type Date Time Source
ELLX Decoded METAR 2019/12/06 03:50 UTC NOAA

Luxembourg / Luxembourg, Luxembourg (ELLX) 49-37N 006-13E 379M
Dec 05, 2019 - 10:50 PM EST / 2019.12.06 0350 UTC
Wind: from the SW (220 degrees) at 9 MPH (8 KT):0
Visibility: less than 1 mile:0
Sky conditions: overcast
Weather: mist
Temperature: 30 F (-1 C)
Windchill: 21 F (-6 C):1
Dew Point: 28 F (-2 C)
Relative Humidity: 92%
Pressure (altimeter): 30.06 in. Hg (1018 hPa)
ob: ELLX 060350Z 22008KT 1200 R24/P2000N BR OVC001 M01/M02 Q1018 NOSIG
cycle: 4

Station Type Date Time Source
ELLX TAF 2019/12/05 18:27 UTC NOAA

TAF ELLX 051700Z 0518/0624 21005KT 0200 FZFG VV002 PROB30
TEMPO 0519/0522 1500 BR
BECMG 0607/0608 23012KT 5000 BR BKN006
TEMPO 0608/0620 2000 -RADZ OVC004 PROB30
TEMPO 0609/0612 1200 -FZRA

Example: see airport list